Time;durP1;ratioP1;P1;durP2;ratioP2;P2;SDS_P1;SDS_P2;PMS_P1;PMS_P2;Temp;Humidity;BMP_temperature;BMP_pressure;BME280_temperature;BME280_humidity;BME280_pressure;Samples;Min_cycle;Max_cycle;Signal;HPM_P1;HPM_P2
2023/04/08 00:01:38;;;;;;;2.83;2.03;;;;;;;;;;5010388;28;20033;-61
2023/04/08 00:04:04;;;;;;;5.22;2.38;;;;;;;;;;5010751;28;20109;-61
2023/04/08 00:06:30;;;;;;;5.75;2.17;;;;;;;;;;5009742;28;20494;-61
2023/04/08 00:08:56;;;;;;;3.72;2.03;;;;;;;;;;5010246;28;20080;-61
2023/04/08 00:11:22;;;;;;;3.90;2.22;;;;;;;;;;5010602;28;20433;-61
2023/04/08 00:13:48;;;;;;;6.00;1.98;;;;;;;;;;5010654;28;20505;-62
2023/04/08 00:16:14;;;;;;;3.33;2.17;;;;;;;;;;5010536;28;20034;-61
2023/04/08 00:18:41;;;;;;;3.20;2.05;;;;;;;;;;5013036;28;20389;-61
2023/04/08 00:21:07;;;;;;;3.53;1.95;;;;;;;;;;4999608;28;20053;-61
2023/04/08 00:23:33;;;;;;;4.85;2.45;;;;;;;;;;5013349;28;20430;-61
2023/04/08 00:25:59;;;;;;;2.75;1.90;;;;;;;;;;5013874;28;20058;-61
2023/04/08 00:28:25;;;;;;;4.70;2.00;;;;;;;;;;5013796;28;20037;-61
2023/04/08 00:30:52;;;;;;;4.47;2.15;;;;;;;;;;5014298;28;20437;-61
2023/04/08 00:33:18;;;;;;;3.88;2.15;;;;;;;;;;5014416;28;20034;-61
2023/04/08 00:35:45;;;;;;;4.97;2.17;;;;;;;;;;5013497;28;20482;-61
2023/04/08 00:38:11;;;;;;;3.05;1.73;;;;;;;;;;5013886;28;20852;-61
2023/04/08 00:40:37;;;;;;;5.65;2.08;;;;;;;;;;5013831;28;20034;-61
2023/04/08 00:43:03;;;;;;;4.18;2.20;;;;;;;;;;5005222;28;20026;-61
2023/04/08 00:45:29;;;;;;;2.83;2.03;;;;;;;;;;5013665;28;20054;-61
2023/04/08 00:47:55;;;;;;;2.92;2.00;;;;;;;;;;5013710;28;20022;-61
2023/04/08 00:50:21;;;;;;;3.88;2.30;;;;;;;;;;5014337;28;20099;-61
2023/04/08 00:52:47;;;;;;;3.97;2.00;;;;;;;;;;5013612;28;20061;-61
2023/04/08 00:55:13;;;;;;;4.10;2.13;;;;;;;;;;5013475;28;20397;-61
2023/04/08 00:57:40;;;;;;;3.97;2.10;;;;;;;;;;5012626;28;20567;-61
2023/04/08 01:00:06;;;;;;;3.47;2.20;;;;;;;;;;4994244;28;20383;-61
2023/04/08 01:02:35;;;;;;;3.67;2.15;;;;;;;;;;5009111;28;20370;-61
2023/04/08 01:05:12;;;;;;;3.95;1.90;;;;;;;;;;4998807;28;20379;-61
2023/04/08 01:07:44;;;;;;;4.45;2.33;;;;;;;;;;5012820;28;20022;-61
2023/04/08 01:10:10;;;;;;;4.53;2.83;;;;;;;;;;5012781;28;20064;-61
2023/04/08 01:12:40;;;;;;;3.80;2.30;;;;;;;;;;5013070;28;20054;-61
2023/04/08 01:15:07;;;;;;;3.58;2.25;;;;;;;;;;5013593;28;20482;-61
2023/04/08 01:17:34;;;;;;;3.95;2.30;;;;;;;;;;5012711;28;20042;-61
2023/04/08 01:20:02;;;;;;;4.00;2.28;;;;;;;;;;5012537;28;20113;-61
2023/04/08 01:22:37;;;;;;;5.93;2.33;;;;;;;;;;4998389;28;20501;-61
2023/04/08 01:25:11;;;;;;;3.03;2.05;;;;;;;;;;5012868;28;20033;-61
2023/04/08 01:27:38;;;;;;;4.72;2.30;;;;;;;;;;5012186;28;20068;-60
2023/04/08 01:30:05;;;;;;;3.42;2.08;;;;;;;;;;5012936;28;20044;-59
2023/04/08 01:32:32;;;;;;;3.88;2.45;;;;;;;;;;5012503;28;20084;-62
2023/04/08 01:34:58;;;;;;;3.60;2.13;;;;;;;;;;5012622;28;20429;-60
2023/04/08 01:37:26;;;;;;;3.55;2.15;;;;;;;;;;5012490;28;20037;-62
2023/04/08 01:39:52;;;;;;;3.97;2.63;;;;;;;;;;5012821;28;20033;-62
2023/04/08 01:42:18;;;;;;;4.13;2.28;;;;;;;;;;5012960;28;20046;-62
2023/04/08 01:44:45;;;;;;;4.25;2.60;;;;;;;;;;5012666;28;20022;-61
2023/04/08 01:47:12;;;;;;;4.80;2.40;;;;;;;;;;5011979;28;20040;-59
2023/04/08 01:49:38;;;;;;;3.17;1.90;;;;;;;;;;4999138;28;20030;-61
2023/04/08 01:52:04;;;;;;;3.92;2.40;;;;;;;;;;4993351;28;20026;-62
2023/04/08 01:54:30;;;;;;;4.53;2.20;;;;;;;;;;5012627;28;20474;-62
2023/04/08 01:56:57;;;;;;;3.03;2.15;;;;;;;;;;5012056;28;20037;-61
2023/04/08 01:59:24;;;;;;;4.57;2.35;;;;;;;;;;5012360;28;20037;-61
2023/04/08 02:01:51;;;;;;;3.50;2.28;;;;;;;;;;5012676;28;20022;-61
2023/04/08 02:04:17;;;;;;;3.30;2.15;;;;;;;;;;5012529;28;20447;-61
2023/04/08 02:06:43;;;;;;;3.88;2.25;;;;;;;;;;5011780;28;20481;-61
2023/04/08 02:09:10;;;;;;;5.43;2.60;;;;;;;;;;5012014;28;20034;-61
2023/04/08 02:11:35;;;;;;;4.38;2.38;;;;;;;;;;5012314;28;20112;-62
2023/04/08 02:14:01;;;;;;;2.85;1.90;;;;;;;;;;5011978;28;20058;-62
2023/04/08 02:16:34;;;;;;;3.42;2.20;;;;;;;;;;5011623;28;20049;-61
2023/04/08 02:19:06;;;;;;;5.63;2.20;;;;;;;;;;5012014;28;20109;-61
2023/04/08 02:21:42;;;;;;;2.88;1.88;;;;;;;;;;5011721;28;20049;-61
2023/04/08 02:24:10;;;;;;;4.40;2.40;;;;;;;;;;5011991;28;20025;-61
2023/04/08 02:26:36;;;;;;;3.22;1.80;;;;;;;;;;5011357;28;20037;-61
2023/04/08 02:29:04;;;;;;;2.28;1.48;;;;;;;;;;5011898;28;20018;-62
2023/04/08 02:31:30;;;;;;;3.22;1.90;;;;;;;;;;5012034;28;20048;-62
2023/04/08 02:33:57;;;;;;;4.05;2.05;;;;;;;;;;5011881;28;20452;-61
2023/04/08 02:36:23;;;;;;;3.75;1.98;;;;;;;;;;5011289;28;20049;-62
2023/04/08 02:38:49;;;;;;;2.67;1.60;;;;;;;;;;5012024;28;20119;-61
2023/04/08 02:41:15;;;;;;;4.00;2.00;;;;;;;;;;4993482;28;20030;-61
2023/04/08 02:43:41;;;;;;;4.07;2.10;;;;;;;;;;5011208;28;20490;-61
2023/04/08 02:46:09;;;;;;;3.35;1.98;;;;;;;;;;5011943;28;20513;-61
2023/04/08 02:48:35;;;;;;;4.15;2.13;;;;;;;;;;5011026;28;20054;-61
2023/04/08 02:51:01;;;;;;;3.67;1.85;;;;;;;;;;5012030;28;20034;-61
2023/04/08 02:53:26;;;;;;;3.05;2.00;;;;;;;;;;5011162;28;20038;-61
2023/04/08 02:55:52;;;;;;;4.55;2.10;;;;;;;;;;5010966;28;20037;-59
2023/04/08 02:58:19;;;;;;;3.58;2.17;;;;;;;;;;5011408;28;20033;-61
2023/04/08 03:00:45;;;;;;;3.67;2.00;;;;;;;;;;5010808;28;20109;-61
2023/04/08 03:03:11;;;;;;;3.08;2.00;;;;;;;;;;5011339;28;20052;-61
2023/04/08 03:05:37;;;;;;;4.63;2.05;;;;;;;;;;5010974;28;20026;-61
2023/04/08 03:08:03;;;;;;;4.18;2.10;;;;;;;;;;5011025;28;20030;-61
2023/04/08 03:10:29;;;;;;;2.63;1.63;;;;;;;;;;5010867;28;20041;-61
2023/04/08 03:12:55;;;;;;;2.67;1.60;;;;;;;;;;5011248;28;20026;-61
2023/04/08 03:15:21;;;;;;;1.95;1.45;;;;;;;;;;5011284;28;20032;-61
2023/04/08 03:17:47;;;;;;;3.58;2.28;;;;;;;;;;5010566;28;20033;-61
2023/04/08 03:20:13;;;;;;;4.32;2.08;;;;;;;;;;5011187;28;20048;-61
2023/04/08 03:22:39;;;;;;;3.15;1.90;;;;;;;;;;5010886;28;20025;-62
2023/04/08 03:25:05;;;;;;;2.45;1.55;;;;;;;;;;5010015;28;20483;-61
2023/04/08 03:27:31;;;;;;;3.22;1.88;;;;;;;;;;5010795;28;20077;-61
2023/04/08 03:29:57;;;;;;;3.70;1.90;;;;;;;;;;5010852;28;20038;-61
2023/04/08 03:32:23;;;;;;;3.03;1.88;;;;;;;;;;5010916;28;20051;-61
2023/04/08 03:34:50;;;;;;;2.90;1.50;;;;;;;;;;5010964;28;20030;-61
2023/04/08 03:37:16;;;;;;;2.92;2.15;;;;;;;;;;5010780;28;20088;-61
2023/04/08 03:39:42;;;;;;;3.28;1.85;;;;;;;;;;5010628;28;20026;-61
2023/04/08 03:42:08;;;;;;;3.85;2.10;;;;;;;;;;5010907;28;20044;-61
2023/04/08 03:44:34;;;;;;;2.92;1.90;;;;;;;;;;4994401;28;20494;-61
2023/04/08 03:47:00;;;;;;;3.55;1.75;;;;;;;;;;5010820;28;20026;-62
2023/04/08 03:49:26;;;;;;;4.30;2.25;;;;;;;;;;5010580;28;20029;-61
2023/04/08 03:51:53;;;;;;;3.67;1.80;;;;;;;;;;5012807;28;20425;-60
2023/04/08 03:54:19;;;;;;;3.67;2.22;;;;;;;;;;5014788;28;20077;-62
2023/04/08 03:56:45;;;;;;;3.20;1.90;;;;;;;;;;5014265;28;20045;-62
2023/04/08 03:59:11;;;;;;;4.90;2.00;;;;;;;;;;5014620;28;20072;-61
2023/04/08 04:01:37;;;;;;;6.28;1.90;;;;;;;;;;5013613;28;20394;-61
2023/04/08 04:04:03;;;;;;;2.72;1.85;;;;;;;;;;5013930;28;20032;-61
2023/04/08 04:06:29;;;;;;;2.50;1.67;;;;;;;;;;5013835;28;20114;-61
2023/04/08 04:08:55;;;;;;;3.75;1.77;;;;;;;;;;5014422;28;20178;-61
2023/04/08 04:11:21;;;;;;;2.55;1.63;;;;;;;;;;5014699;28;20042;-61
2023/04/08 04:13:48;;;;;;;2.65;1.50;;;;;;;;;;5014123;28;20076;-61
2023/04/08 04:16:14;;;;;;;2.47;1.65;;;;;;;;;;5014240;28;20438;-61
2023/04/08 04:18:40;;;;;;;3.92;2.03;;;;;;;;;;5013731;28;20132;-61
2023/04/08 04:21:06;;;;;;;6.05;1.70;;;;;;;;;;5014468;28;20088;-61
2023/04/08 04:23:32;;;;;;;3.40;1.90;;;;;;;;;;5014091;28;20108;-61
2023/04/08 04:25:58;;;;;;;2.10;1.40;;;;;;;;;;5014117;28;20512;-61
2023/04/08 04:28:24;;;;;;;3.08;1.98;;;;;;;;;;5013905;28;20038;-62
2023/04/08 04:30:50;;;;;;;3.00;1.67;;;;;;;;;;5014438;28;20390;-61
2023/04/08 04:33:16;;;;;;;2.40;1.40;;;;;;;;;;5014133;28;20037;-62
2023/04/08 04:35:42;;;;;;;2.45;1.40;;;;;;;;;;5013641;28;20030;-61
2023/04/08 04:38:11;;;;;;;4.38;1.88;;;;;;;;;;5014059;28;20092;-61
2023/04/08 04:40:38;;;;;;;6.72;1.60;;;;;;;;;;5013430;28;20032;-62
2023/04/08 04:43:04;;;;;;;4.75;1.65;;;;;;;;;;5013690;28;20425;-61
2023/04/08 04:45:30;;;;;;;2.60;1.70;;;;;;;;;;5013584;28;20100;-62
2023/04/08 04:47:56;;;;;;;2.63;1.58;;;;;;;;;;5013353;28;20478;-62
2023/04/08 04:50:22;;;;;;;3.70;1.67;;;;;;;;;;5013659;28;20038;-61
2023/04/08 04:52:48;;;;;;;4.05;1.70;;;;;;;;;;5013781;28;20080;-62
2023/04/08 04:55:14;;;;;;;3.50;1.88;;;;;;;;;;5013445;28;20063;-62
2023/04/08 04:57:40;;;;;;;4.38;2.17;;;;;;;;;;5012733;28;20394;-61
2023/04/08 05:00:07;;;;;;;3.45;1.70;;;;;;;;;;5013337;28;20026;-61
2023/04/08 05:02:33;;;;;;;2.05;1.52;;;;;;;;;;5012509;28;20397;-61
2023/04/08 05:04:59;;;;;;;3.20;1.60;;;;;;;;;;5013643;28;20030;-61
2023/04/08 05:07:25;;;;;;;2.30;1.38;;;;;;;;;;5012261;28;20033;-62
2023/04/08 05:09:51;;;;;;;3.85;1.80;;;;;;;;;;5013109;28;20053;-62
2023/04/08 05:12:19;;;;;;;3.40;1.65;;;;;;;;;;5013163;28;20030;-61
2023/04/08 05:14:45;;;;;;;3.03;2.03;;;;;;;;;;5012938;28;20043;-62
2023/04/08 05:17:11;;;;;;;2.13;1.20;;;;;;;;;;5012046;28;20176;-61
2023/04/08 05:19:37;;;;;;;2.97;1.42;;;;;;;;;;5012727;28;20114;-59
2023/04/08 05:22:03;;;;;;;2.35;1.60;;;;;;;;;;5012998;28;20131;-61
2023/04/08 05:24:29;;;;;;;2.90;1.70;;;;;;;;;;5012541;28;20022;-61
2023/04/08 05:26:56;;;;;;;2.50;1.60;;;;;;;;;;5013322;28;20424;-61
2023/04/08 05:29:22;;;;;;;2.63;1.20;;;;;;;;;;5013571;28;20037;-61
2023/04/08 05:31:48;;;;;;;4.20;1.65;;;;;;;;;;4995882;28;20028;-61
2023/04/08 05:34:18;;;;;;;2.75;1.63;;;;;;;;;;5012715;28;20030;-60
2023/04/08 05:36:44;;;;;;;3.30;1.65;;;;;;;;;;5011712;28;20559;-61
2023/04/08 05:39:10;;;;;;;2.80;1.30;;;;;;;;;;5012994;28;20076;-61
2023/04/08 05:41:36;;;;;;;2.80;1.83;;;;;;;;;;5012544;28;20038;-61
2023/04/08 05:44:02;;;;;;;2.47;1.42;;;;;;;;;;5012488;28;20029;-61
2023/04/08 05:46:28;;;;;;;2.83;1.48;;;;;;;;;;5011995;28;20128;-61
2023/04/08 05:48:54;;;;;;;2.80;1.40;;;;;;;;;;5012619;28;20034;-61
2023/04/08 05:51:20;;;;;;;3.83;1.40;;;;;;;;;;5013050;28;20034;-61
2023/04/08 05:53:46;;;;;;;1.98;1.23;;;;;;;;;;5011970;28;20095;-61
2023/04/08 05:56:12;;;;;;;5.05;1.73;;;;;;;;;;4995214;28;20037;-61
2023/04/08 05:58:38;;;;;;;3.83;1.50;;;;;;;;;;5012278;28;20030;-61
2023/04/08 06:01:06;;;;;;;3.88;1.35;;;;;;;;;;5011431;28;20033;-61
2023/04/08 06:03:32;;;;;;;3.20;1.75;;;;;;;;;;5011655;28;20030;-61
2023/04/08 06:05:58;;;;;;;3.38;1.35;;;;;;;;;;5012590;28;20072;-61
2023/04/08 06:08:24;;;;;;;3.35;1.38;;;;;;;;;;5012301;28;20379;-61
2023/04/08 06:10:50;;;;;;;2.03;1.30;;;;;;;;;;5012580;28;20041;-61
2023/04/08 06:13:16;;;;;;;2.80;1.77;;;;;;;;;;5012485;28;20441;-61
2023/04/08 06:15:42;;;;;;;2.17;1.27;;;;;;;;;;5010148;28;20052;-61
2023/04/08 06:18:08;;;;;;;2.83;1.20;;;;;;;;;;5012140;28;20127;-61
2023/04/08 06:20:35;;;;;;;1.98;1.27;;;;;;;;;;5011739;28;20439;-61
2023/04/08 06:23:01;;;;;;;2.40;1.70;;;;;;;;;;5012299;28;20112;-61
2023/04/08 06:25:27;;;;;;;1.73;1.20;;;;;;;;;;5011285;28;20112;-61
2023/04/08 06:27:53;;;;;;;2.47;1.40;;;;;;;;;;5012546;28;20026;-61
2023/04/08 06:30:19;;;;;;;1.67;1.23;;;;;;;;;;5011767;28;20037;-61
2023/04/08 06:32:48;;;;;;;1.90;1.10;;;;;;;;;;5012116;28;20025;-62
2023/04/08 06:35:14;;;;;;;2.47;1.20;;;;;;;;;;5011544;28;20406;-61
2023/04/08 06:37:40;;;;;;;2.92;1.40;;;;;;;;;;5011409;28;20486;-61
2023/04/08 06:40:06;;;;;;;3.28;1.38;;;;;;;;;;5011614;28;20036;-61
2023/04/08 06:42:32;;;;;;;2.40;1.30;;;;;;;;;;5011540;28;20044;-61
2023/04/08 06:44:58;;;;;;;2.03;1.40;;;;;;;;;;5011969;28;20022;-61
2023/04/08 06:47:25;;;;;;;3.92;1.30;;;;;;;;;;5011407;28;20084;-61
2023/04/08 06:49:50;;;;;;;1.92;1.30;;;;;;;;;;5011906;28;20036;-61
2023/04/08 06:52:16;;;;;;;2.92;1.58;;;;;;;;;;5011448;28;20108;-61
2023/04/08 06:54:43;;;;;;;4.20;1.42;;;;;;;;;;4995195;28;20514;-61
2023/04/08 06:57:08;;;;;;;2.08;1.52;;;;;;;;;;5011606;28;20395;-61
2023/04/08 06:59:35;;;;;;;3.67;2.15;;;;;;;;;;5010858;28;20033;-61
2023/04/08 07:02:01;;;;;;;2.67;1.50;;;;;;;;;;5009766;28;20409;-62
2023/04/08 07:04:27;;;;;;;9.10;1.40;;;;;;;;;;5010911;28;20137;-61
2023/04/08 07:06:53;;;;;;;2.90;1.60;;;;;;;;;;5011418;28;20494;-61
2023/04/08 07:09:19;;;;;;;2.78;1.30;;;;;;;;;;5011171;28;20072;-62
2023/04/08 07:11:45;;;;;;;2.10;1.05;;;;;;;;;;5010745;28;20092;-61
2023/04/08 07:14:11;;;;;;;2.13;1.00;;;;;;;;;;5010920;28;20022;-61
2023/04/08 07:16:37;;;;;;;4.43;1.40;;;;;;;;;;5011157;28;20042;-61
2023/04/08 07:19:03;;;;;;;2.50;1.33;;;;;;;;;;5011064;28;20496;-61
2023/04/08 07:21:30;;;;;;;4.32;1.40;;;;;;;;;;5010652;28;20030;-61
2023/04/08 07:23:56;;;;;;;2.58;1.40;;;;;;;;;;5011110;28;20026;-61
2023/04/08 07:26:22;;;;;;;2.97;1.15;;;;;;;;;;5010890;28;20041;-61
2023/04/08 07:28:48;;;;;;;2.00;1.30;;;;;;;;;;5010136;28;20046;-61
2023/04/08 07:31:15;;;;;;;4.28;1.60;;;;;;;;;;5010978;28;20494;-61
2023/04/08 07:33:42;;;;;;;3.42;1.33;;;;;;;;;;5010170;28;20075;-65
2023/04/08 07:36:11;;;;;;;3.85;1.48;;;;;;;;;;5007183;28;20034;-65
2023/04/08 07:38:37;;;;;;;2.63;1.33;;;;;;;;;;5010664;28;20109;-63
2023/04/08 07:41:04;;;;;;;5.70;1.63;;;;;;;;;;5011308;28;20101;-61
2023/04/08 07:43:31;;;;;;;3.00;1.50;;;;;;;;;;5010945;28;20037;-61
2023/04/08 07:46:02;;;;;;;3.97;1.30;;;;;;;;;;5009489;28;20038;-66
2023/04/08 07:48:28;;;;;;;3.20;1.55;;;;;;;;;;5010815;28;20438;-61
2023/04/08 07:50:55;;;;;;;2.60;1.40;;;;;;;;;;5010944;28;20030;-64
2023/04/08 07:53:22;;;;;;;7.80;1.90;;;;;;;;;;5007582;28;20096;-63
2023/04/08 07:55:48;;;;;;;3.65;1.63;;;;;;;;;;5009191;28;20037;-61
2023/04/08 07:58:14;;;;;;;5.95;1.73;;;;;;;;;;5011092;28;20517;-62
2023/04/08 08:00:40;;;;;;;2.58;1.30;;;;;;;;;;5007065;28;20065;-61
2023/04/08 08:03:06;;;;;;;3.72;2.00;;;;;;;;;;5010669;28;20107;-61
2023/04/08 08:05:32;;;;;;;11.77;2.38;;;;;;;;;;5009976;28;20032;-61
2023/04/08 08:07:58;;;;;;;4.15;1.77;;;;;;;;;;5011034;28;20034;-62
2023/04/08 08:10:24;;;;;;;5.70;1.75;;;;;;;;;;5010601;28;20030;-62
2023/04/08 08:12:50;;;;;;;4.68;1.80;;;;;;;;;;5011263;28;20026;-62
2023/04/08 08:15:16;;;;;;;5.70;1.92;;;;;;;;;;5010988;28;20475;-65
2023/04/08 08:17:42;;;;;;;7.55;1.80;;;;;;;;;;5010109;28;20042;-61
2023/04/08 08:20:09;;;;;;;5.50;1.85;;;;;;;;;;5010957;28;20022;-62
2023/04/08 08:22:35;;;;;;;6.72;1.55;;;;;;;;;;5009182;28;20041;-61
2023/04/08 08:25:01;;;;;;;6.78;2.28;;;;;;;;;;5010124;28;20497;-62
2023/04/08 08:27:27;;;;;;;7.45;1.95;;;;;;;;;;5010343;28;20045;-62
2023/04/08 08:29:53;;;;;;;4.03;1.42;;;;;;;;;;5011104;28;20394;-62
2023/04/08 08:32:19;;;;;;;4.88;1.80;;;;;;;;;;5010535;28;20034;-62
2023/04/08 08:34:45;;;;;;;6.75;1.60;;;;;;;;;;5014177;28;20075;-61
2023/04/08 08:37:11;;;;;;;3.83;1.58;;;;;;;;;;5018811;28;20449;-62
2023/04/08 08:39:37;;;;;;;3.95;1.50;;;;;;;;;;5022596;28;20020;-62
2023/04/08 08:42:03;;;;;;;6.15;1.73;;;;;;;;;;5018652;28;20092;-62
2023/04/08 08:44:29;;;;;;;4.90;1.88;;;;;;;;;;5021880;28;20018;-62
2023/04/08 08:46:55;;;;;;;7.07;1.85;;;;;;;;;;5027376;28;20057;-61
2023/04/08 08:49:22;;;;;;;7.32;2.05;;;;;;;;;;5020651;28;20057;-62
2023/04/08 08:51:49;;;;;;;8.02;1.95;;;;;;;;;;5012637;28;20024;-62
2023/04/08 08:54:15;;;;;;;3.55;1.73;;;;;;;;;;5013292;28;20157;-62
2023/04/08 08:56:42;;;;;;;4.68;2.00;;;;;;;;;;5011317;28;20113;-62
2023/04/08 08:59:08;;;;;;;3.72;1.60;;;;;;;;;;5013776;28;20038;-62
2023/04/08 09:01:36;;;;;;;6.55;1.60;;;;;;;;;;5012780;28;20045;-63
2023/04/08 09:04:16;;;;;;;4.00;1.90;;;;;;;;;;5013594;28;20034;-62
2023/04/08 09:06:43;;;;;;;5.63;1.70;;;;;;;;;;5013636;28;20030;-63
2023/04/08 09:09:09;;;;;;;9.15;2.17;;;;;;;;;;5013840;28;20100;-63
2023/04/08 09:11:36;;;;;;;6.05;2.00;;;;;;;;;;5013506;28;20037;-63
2023/04/08 09:14:02;;;;;;;3.45;1.83;;;;;;;;;;5013703;28;20030;-63
2023/04/08 09:16:31;;;;;;;4.40;1.85;;;;;;;;;;5013364;28;20490;-64
2023/04/08 09:19:07;;;;;;;3.92;1.80;;;;;;;;;;5013411;28;20025;-63
2023/04/08 09:21:34;;;;;;;4.20;1.88;;;;;;;;;;5012715;28;20063;-63
2023/04/08 09:24:00;;;;;;;3.90;1.90;;;;;;;;;;5012869;28;20022;-63
2023/04/08 09:26:26;;;;;;;4.15;1.90;;;;;;;;;;5012574;28;20049;-63
2023/04/08 09:29:05;;;;;;;2.90;1.83;;;;;;;;;;5013044;28;20030;-63
2023/04/08 09:31:32;;;;;;;2.97;1.95;;;;;;;;;;5013247;28;20030;-62
2023/04/08 09:33:59;;;;;;;3.92;1.83;;;;;;;;;;5013248;28;20037;-63
2023/04/08 09:36:26;;;;;;;3.50;1.77;;;;;;;;;;5013051;28;20022;-62
2023/04/08 09:38:53;;;;;;;4.35;1.65;;;;;;;;;;5013477;28;20115;-62
2023/04/08 09:41:20;;;;;;;3.88;2.35;;;;;;;;;;5013542;28;20429;-63
2023/04/08 09:43:55;;;;;;;4.65;1.88;;;;;;;;;;5012623;28;20037;-63
2023/04/08 09:46:21;;;;;;;;;;;;;;;;;;5013048;28;20030;-63
2023/04/08 09:48:56;;;;;;;4.32;1.90;;;;;;;;;;5012650;28;19917;-63
2023/04/08 09:51:22;;;;;;;4.78;2.25;;;;;;;;;;5013141;28;20390;-62
2023/04/08 09:53:53;;;;;;;3.00;1.98;;;;;;;;;;4994987;28;20026;-63
2023/04/08 09:56:20;;;;;;;3.92;2.17;;;;;;;;;;4994888;28;20456;-62
2023/04/08 09:58:57;;;;;;;3.80;1.83;;;;;;;;;;5011141;28;20457;-62
2023/04/08 10:01:28;;;;;;;3.05;1.98;;;;;;;;;;5012476;28;20041;-61
2023/04/08 10:03:56;;;;;;;4.15;1.67;;;;;;;;;;5017513;28;20026;-62
2023/04/08 10:06:26;;;;;;;3.30;1.83;;;;;;;;;;5032786;28;20053;-62
2023/04/08 10:08:52;;;;;;;4.13;2.10;;;;;;;;;;5014160;28;20030;-62
2023/04/08 10:11:18;;;;;;;7.07;2.08;;;;;;;;;;5010500;28;20108;-62
2023/04/08 10:13:45;;;;;;;3.53;2.05;;;;;;;;;;5010753;28;20446;-62
2023/04/08 10:16:25;;;;;;;2.83;1.83;;;;;;;;;;5011860;28;20037;-62
2023/04/08 10:18:54;;;;;;;5.15;2.28;;;;;;;;;;4994805;28;20465;-62
2023/04/08 10:21:38;;;;;;;3.92;2.05;;;;;;;;;;5012496;28;20084;-61
2023/04/08 10:24:11;;;;;;;3.25;2.08;;;;;;;;;;5012491;28;20053;-62
2023/04/08 10:26:43;;;;;;;4.38;2.28;;;;;;;;;;5012042;28;20018;-62
2023/04/08 10:29:20;;;;;;;4.63;2.05;;;;;;;;;;5012290;28;20032;-61
2023/04/08 10:31:46;;;;;;;7.38;2.58;;;;;;;;;;5011926;28;20041;-62
2023/04/08 10:34:20;;;;;;;3.50;2.40;;;;;;;;;;5012179;28;20025;-62
2023/04/08 10:36:46;;;;;;;5.38;2.22;;;;;;;;;;5011792;28;20417;-62
2023/04/08 10:39:13;;;;;;;4.22;2.15;;;;;;;;;;5012154;28;20030;-62
2023/04/08 10:41:45;;;;;;;3.45;2.28;;;;;;;;;;5011749;28;20029;-62
2023/04/08 10:44:15;;;;;;;3.42;2.20;;;;;;;;;;5012124;28;20034;-62
2023/04/08 10:46:42;;;;;;;4.95;2.40;;;;;;;;;;5011608;28;20083;-62
2023/04/08 10:49:08;;;;;;;5.28;2.08;;;;;;;;;;5012095;28;20026;-62
2023/04/08 10:51:34;;;;;;;3.35;2.08;;;;;;;;;;5011720;28;20037;-61
2023/04/08 10:54:07;;;;;;;3.15;2.08;;;;;;;;;;5011870;28;20028;-62
2023/04/08 10:56:33;;;;;;;4.47;2.20;;;;;;;;;;5011666;28;20042;-62
2023/04/08 10:58:59;;;;;;;4.35;1.90;;;;;;;;;;5011701;28;20049;-62
2023/04/08 11:01:26;;;;;;;3.95;2.35;;;;;;;;;;5010986;28;20459;-62
2023/04/08 11:03:52;;;;;;;3.10;2.10;;;;;;;;;;5012061;28;20024;-62
2023/04/08 11:06:18;;;;;;;3.78;2.33;;;;;;;;;;5011696;28;20030;-62
2023/04/08 11:08:44;;;;;;;4.00;2.13;;;;;;;;;;5011414;28;20084;-62
2023/04/08 11:11:11;;;;;;;3.95;2.33;;;;;;;;;;5011713;28;20048;-62
2023/04/08 11:13:39;;;;;;;5.05;2.60;;;;;;;;;;5011395;28;20065;-62
2023/04/08 11:16:07;;;;;;;3.28;2.30;;;;;;;;;;5011480;28;20038;-62
2023/04/08 11:18:40;;;;;;;3.50;2.28;;;;;;;;;;5011227;28;20506;-62
2023/04/08 11:21:09;;;;;;;4.45;2.20;;;;;;;;;;5011503;28;20080;-62
2023/04/08 11:23:36;;;;;;;7.78;2.45;;;;;;;;;;5011122;28;20037;-62
2023/04/08 11:26:03;;;;;;;5.28;2.75;;;;;;;;;;5011551;28;20060;-62
2023/04/08 11:28:29;;;;;;;3.45;2.20;;;;;;;;;;5011202;28;20064;-62
2023/04/08 11:30:55;;;;;;;4.47;2.40;;;;;;;;;;5011374;28;20030;-62
2023/04/08 11:33:21;;;;;;;3.95;2.72;;;;;;;;;;5011728;28;20022;-62
2023/04/08 11:35:51;;;;;;;3.42;2.60;;;;;;;;;;5011072;28;20092;-62
2023/04/08 11:38:21;;;;;;;3.75;2.20;;;;;;;;;;5011272;28;20026;-61
2023/04/08 11:40:54;;;;;;;3.75;2.70;;;;;;;;;;5011141;28;20076;-62
2023/04/08 11:43:20;;;;;;;5.53;2.50;;;;;;;;;;5011368;28;20041;-62
2023/04/08 11:45:46;;;;;;;3.40;2.50;;;;;;;;;;5011054;28;20029;-62
2023/04/08 11:48:12;;;;;;;4.18;2.50;;;;;;;;;;5011206;28;20026;-62
2023/04/08 11:50:39;;;;;;;4.70;2.80;;;;;;;;;;5010925;28;20057;-62
2023/04/08 11:53:15;;;;;;;4.35;2.50;;;;;;;;;;5011066;28;20030;-62
2023/04/08 11:55:41;;;;;;;4.10;2.20;;;;;;;;;;5010958;28;20022;-62
2023/04/08 11:58:07;;;;;;;4.53;2.42;;;;;;;;;;5011260;28;20124;-62
2023/04/08 12:00:33;;;;;;;4.13;2.67;;;;;;;;;;5010985;28;20046;-62
2023/04/08 12:02:59;;;;;;;3.33;2.17;;;;;;;;;;5011184;28;20041;-62
2023/04/08 12:05:25;;;;;;;4.20;2.50;;;;;;;;;;5010880;28;20046;-62
2023/04/08 12:07:51;;;;;;;5.38;2.33;;;;;;;;;;5011179;28;20025;-62
2023/04/08 12:10:17;;;;;;;3.40;2.40;;;;;;;;;;5011111;28;20036;-62
2023/04/08 12:12:43;;;;;;;3.55;2.30;;;;;;;;;;5012464;28;20030;-62
2023/04/08 12:15:10;;;;;;;4.07;2.35;;;;;;;;;;5014856;28;20022;-62
2023/04/08 12:17:37;;;;;;;4.95;2.50;;;;;;;;;;5014505;28;20482;-62
2023/04/08 12:20:04;;;;;;;3.20;2.35;;;;;;;;;;5014634;28;20073;-62
2023/04/08 12:22:30;;;;;;;4.85;2.45;;;;;;;;;;5014502;28;20034;-62
2023/04/08 12:24:56;;;;;;;3.83;2.15;;;;;;;;;;5014724;28;20029;-62
2023/04/08 12:27:22;;;;;;;4.18;2.22;;;;;;;;;;5014919;28;20029;-62
2023/04/08 12:29:48;;;;;;;3.92;2.50;;;;;;;;;;5014091;28;20033;-61
2023/04/08 12:32:14;;;;;;;2.75;2.17;;;;;;;;;;5014350;28;20406;-61
2023/04/08 12:34:40;;;;;;;6.53;2.60;;;;;;;;;;5014076;28;20024;-61
2023/04/08 12:37:06;;;;;;;3.35;2.30;;;;;;;;;;5014016;28;20117;-61
2023/04/08 12:39:32;;;;;;;3.35;2.40;;;;;;;;;;5013920;28;20573;-61
2023/04/08 12:41:58;;;;;;;3.25;2.22;;;;;;;;;;5014097;28;20037;-61
2023/04/08 12:44:25;;;;;;;3.42;2.72;;;;;;;;;;5013794;28;20573;-60
2023/04/08 12:46:51;;;;;;;3.00;2.20;;;;;;;;;;5014232;28;20030;-62
2023/04/08 12:49:17;;;;;;;3.15;2.33;;;;;;;;;;5013885;28;20028;-60
2023/04/08 12:51:43;;;;;;;3.15;2.40;;;;;;;;;;5013675;28;20025;-62
2023/04/08 12:54:09;;;;;;;3.25;2.28;;;;;;;;;;5013948;28;20180;-63
2023/04/08 12:56:35;;;;;;;3.17;2.13;;;;;;;;;;5013598;28;20037;-63
2023/04/08 12:59:01;;;;;;;3.55;2.60;;;;;;;;;;5013900;28;20109;-62
2023/04/08 13:01:27;;;;;;;3.33;2.28;;;;;;;;;;5013592;28;20022;-62
2023/04/08 13:03:53;;;;;;;4.07;2.45;;;;;;;;;;5014024;28;20072;-60
2023/04/08 13:06:19;;;;;;;3.50;2.60;;;;;;;;;;5013911;28;20494;-63
2023/04/08 13:08:46;;;;;;;3.08;2.25;;;;;;;;;;5013515;28;20029;-60
2023/04/08 13:11:13;;;;;;;3.13;2.35;;;;;;;;;;5013759;28;20033;-63
2023/04/08 13:13:38;;;;;;;3.10;2.20;;;;;;;;;;5013352;28;20022;-62
2023/04/08 13:16:05;;;;;;;4.82;2.58;;;;;;;;;;5013436;28;20041;-62
2023/04/08 13:18:31;;;;;;;3.20;2.53;;;;;;;;;;5013134;28;20032;-61
2023/04/08 13:20:57;;;;;;;3.70;2.33;;;;;;;;;;5013487;28;20030;-62
2023/04/08 13:23:23;;;;;;;3.13;2.10;;;;;;;;;;5013452;28;20386;-60
2023/04/08 13:25:49;;;;;;;4.63;2.60;;;;;;;;;;5013117;28;20033;-63
2023/04/08 13:28:15;;;;;;;2.60;2.15;;;;;;;;;;5013262;28;20022;-63
2023/04/08 13:30:41;;;;;;;3.67;2.35;;;;;;;;;;5013009;28;20022;-63
2023/04/08 13:33:07;;;;;;;3.08;2.25;;;;;;;;;;5013099;28;20443;-62
2023/04/08 13:35:33;;;;;;;3.03;2.13;;;;;;;;;;5012998;28;20028;-63
2023/04/08 13:37:59;;;;;;;2.65;2.08;;;;;;;;;;5013096;28;20429;-63
2023/04/08 13:40:26;;;;;;;2.72;2.22;;;;;;;;;;5012811;28;20073;-60
2023/04/08 13:42:52;;;;;;;3.72;2.58;;;;;;;;;;4995967;28;20485;-60
2023/04/08 13:45:19;;;;;;;2.92;2.60;;;;;;;;;;5012977;28;20100;-62
2023/04/08 13:47:45;;;;;;;3.10;2.50;;;;;;;;;;5012472;28;20490;-62
2023/04/08 13:50:11;;;;;;;3.10;2.15;;;;;;;;;;5012878;28;20034;-62
2023/04/08 13:52:37;;;;;;;2.97;2.60;;;;;;;;;;5012577;28;20421;-62
2023/04/08 13:55:03;;;;;;;3.10;2.28;;;;;;;;;;5012796;28;20088;-63
2023/04/08 13:57:29;;;;;;;3.17;2.38;;;;;;;;;;5012436;28;20076;-63
2023/04/08 13:59:55;;;;;;;3.28;2.55;;;;;;;;;;5012386;28;20390;-63
2023/04/08 14:02:22;;;;;;;3.15;2.33;;;;;;;;;;5012913;28;20033;-62
2023/04/08 14:04:48;;;;;;;3.65;2.60;;;;;;;;;;5012427;28;20080;-62
2023/04/08 14:07:14;;;;;;;3.65;2.88;;;;;;;;;;5012599;28;20464;-62
2023/04/08 14:09:40;;;;;;;2.78;2.20;;;;;;;;;;5012253;28;20028;-62
2023/04/08 14:12:06;;;;;;;4.10;2.22;;;;;;;;;;5012398;28;20096;-62
2023/04/08 14:14:32;;;;;;;2.95;2.45;;;;;;;;;;5012056;28;20068;-62
2023/04/08 14:16:58;;;;;;;2.83;2.28;;;;;;;;;;5012112;28;20038;-62
2023/04/08 14:19:24;;;;;;;2.83;2.10;;;;;;;;;;5012317;28;20490;-62
2023/04/08 14:21:50;;;;;;;3.90;2.60;;;;;;;;;;5012708;28;20054;-62
2023/04/08 14:24:16;;;;;;;2.50;2.03;;;;;;;;;;5012267;28;20455;-63
2023/04/08 14:26:42;;;;;;;3.67;2.60;;;;;;;;;;5011975;28;20026;-63
2023/04/08 14:29:08;;;;;;;3.78;2.60;;;;;;;;;;5012173;28;20064;-63
2023/04/08 14:31:35;;;;;;;3.00;2.53;;;;;;;;;;5011853;28;20050;-60
2023/04/08 14:34:01;;;;;;;4.45;2.83;;;;;;;;;;5012118;28;20017;-63
2023/04/08 14:36:29;;;;;;;2.45;2.22;;;;;;;;;;5010855;28;20497;-60
2023/04/08 14:38:55;;;;;;;3.45;2.58;;;;;;;;;;5012005;28;20042;-63
2023/04/08 14:41:21;;;;;;;2.20;1.80;;;;;;;;;;5012370;28;20096;-63